الصفحة الرئيسية
METAR-TAF:

METAR-TAF

مطار :

بوبوديولاسو, بوركينا فاسو

دائرة عرض: 11-10N, خط طول: 004-19W, ارتفاع: 460 متر

مراقبة الطقس الحالي

تاريخ ووقت الإصدار 57 دقيقة قبل الساعة 13:00UTC
ريح 17 عقدة من الشمال/الشمال الشرقي, الاتجاه يتراوح بين الشمال و الشرق/الشمال الشرقي
درجة الحرارة 24°درجة مئوية
الرطوبة 83%
ضغط 1014 hPa
الرؤية 10 كم أو أكثر
غيوم متفرقة على ارتفاع 1600 قدم
غيوم قليلة على ارتفاع 3300 قدم, مزنة ركامية.

METAR: DFOO 201300Z 03017KT 360V060 9999 SCT016 FEW033CB 24/21 Q1014

زمن: 13:57 (13:57 UTC)

توقعات

تاريخ ووقت الإصدار 2ساعات و 57 دقيقة قبل الساعة 11:00UTC
التوقعات صالحة من20 الساعة 12 UTC إلى 21 الساعة 12 UTC
ريح 8 عقدة من الجنوب الغربي
الرؤية 10 كم أو أكثر
غيوم متفرقة على ارتفاع 2000 قدم
نظرية الاحتمالات 40% :
مؤقت
من 20 الساعة 12 UTC إلى 20 الساعة 24 UTC
الرؤية: 4000 متر
غيوم متفرقة على ارتفاع 1600 قدم
غيوم قليلة على ارتفاع 3300 قدم, مزنة ركامية.
عاصفة رعدية, زخات من المطر,

TAF: DFOO 201100Z 2012/2112 22008KT 9999 SCT020 PROB40 TEMPO 2012/2024 4000 TS SHRA SCT016 FEW033CB

أرصاد الطقس والتوقعات من أكثر من 4000 مطار (تقارير الطقس للمطار METAR والتنبؤ بالطقس بالمطارTAF).

المحطات المتاحة هي النقط الصفراء والحمراء على الخريطة.

حرك المؤشر فوق النقطة لمعرفة اسم المحطة.

ثم انقر لمعرفة أرصاد وتوقعات الطقس.

لتغيير الخارطة: اضغط على الأزرار الخضراء مع رمز الصليب الأسود للتكبير. على الزر الأخضر مع شرطة للتصغير، أو على الأسهم الخضراء للخرائط المجاورة.


METAR-TAF: